This is the latest recevied weather packets stored in our database for station/object WP3XM. If no packets are shown the sender has not sent any weather packets the latest 1 day(s).
| Time | Temp. | Humidity | Pressure | Rain* | Wind** | Luminosity | Snow |
|---|---|---|---|---|---|---|---|
| 1778001409 | 30° C | 67% | 1018.9 hPa | 0 mm | 3.13 m/s, 113° | 1112 W/m² | - |
| 1778001107 | 30° C | 69% | 1018.8 hPa | 0 mm | 3.13 m/s, 60° | 904 W/m² | - |
| 1778000804 | 30° C | 68% | 1019.1 hPa | 0 mm | 2.24 m/s, 155° | 610 W/m² | - |
| 1778000500 | 30° C | 69% | 1019 hPa | 0 mm | 3.13 m/s, 80° | 1031 W/m² | - |
| 1778000200 | 30.56° C | 66% | 1019.2 hPa | 0 mm | 5.36 m/s, 113° | 656 W/m² | - |
| 1777999897 | 30° C | 69% | 1019.1 hPa | 0 mm | 2.24 m/s, 141° | 1100 W/m² | - |
| 1777999592 | 30° C | 68% | 1019 hPa | 0 mm | 4.92 m/s, 95° | 432 W/m² | - |
| 1777999290 | 29.44° C | 69% | 1019 hPa | 0 mm | 3.13 m/s, 121° | 1161 W/m² | - |
| 1777998988 | 29.44° C | 70% | 1019 hPa | 0 mm | 4.47 m/s, 110° | 793 W/m² | - |
| 1777998685 | 30° C | 69% | 1019 hPa | 0 mm | 6.71 m/s, 74° | 193 W/m² | - |
| 1777998383 | 29.44° C | 70% | 1019.1 hPa | 0 mm | 4.47 m/s, 112° | 877 W/m² | - |
| 1777998080 | 29.44° C | 69% | 1019.2 hPa | 0 mm | 4.92 m/s, 105° | 1039 W/m² | - |
| 1777997777 | 29.44° C | 70% | 1019.2 hPa | 0 mm | 4.92 m/s, 126° | 465 W/m² | - |
| 1777997475 | 29.44° C | 71% | 1019.2 hPa | 0 mm | 4.02 m/s, 87° | 1066 W/m² | - |
| 1777997172 | 29.44° C | 72% | 1019.1 hPa | 0 mm | 4.47 m/s, 202° | 1138 W/m² | - |
| 1777996869 | 28.89° C | 74% | 1019.1 hPa | 0 mm | 3.13 m/s, 123° | 1101 W/m² | - |
| 1777996565 | 28.89° C | 73% | 1019.2 hPa | 0 mm | 5.36 m/s, 135° | 1210 W/m² | - |
| 1777996262 | 29.44° C | 72% | 1019.2 hPa | 0 mm | 4.02 m/s, 101° | 367 W/m² | - |
| 1777995958 | 28.89° C | 74% | 1019.3 hPa | 0 mm | 3.13 m/s, 166° | 345 W/m² | - |
| 1777995654 | 28.89° C | 77% | 1019.4 hPa | 0 mm | 1.79 m/s, 185° | 404 W/m² | - |
| 1777995352 | 28.89° C | 76% | 1019.3 hPa | 0 mm | 3.13 m/s, 111° | 1042 W/m² | - |
| 1777995049 | 29.44° C | 73% | 1019.1 hPa | 0 mm | 5.81 m/s, 106° | 458 W/m² | - |
| 1777994745 | 29.44° C | 73% | 1019.1 hPa | 0 mm | 4.02 m/s, 123° | 296 W/m² | - |
| 1777994441 | 29.44° C | 73% | 1019.2 hPa | 0 mm | 2.68 m/s, 87° | 1220 W/m² | - |
| 1777994136 | 29.44° C | 74% | 1019.3 hPa | 0 mm | 2.68 m/s, 109° | 1170 W/m² | - |
* Rain latest hour (hover to see other rain measurements)
** Current wind speed in m/s (hover to see current wind gust speed)